WAT5643 KATL-KLAX
Flight info
| Callsign | WAT5643 |
|---|---|
| Flight time | N/A |
| Altitude | 26000 |
| Route | NASSA2 YAALL J14 KOMMA/N0451F280 J14 PNH ACH ABQ J78 DRK GABBL HLYWD1 |
| Aircraft | A21N/M-SDE3FGHIJ5RWY/LB1 |
Departure
| Time | N/A |
|---|---|
| Airport | Hartsfield Jackson Atlanta International Airport (KATL) |
Arrival
| Time | 2026-05-05 02:05 |
|---|---|
| Airport | Los Angeles International Airport (KLAX) |
| Time | Latitude | Longitude | Altitude | Speed | Heading |
|---|---|---|---|---|---|
| 2026-05-05 01:39 | 34.09806 | -116.35490 | 27969 ft | 386 kts | 255° |
| 2026-05-05 01:39 | 34.09520 | -116.38161 | 27969 ft | 386 kts | 255° |
| 2026-05-05 01:39 | 34.09234 | -116.40782 | 27967 ft | 384 kts | 255° |
| 2026-05-05 01:40 | 34.08951 | -116.43462 | 27969 ft | 385 kts | 255° |
| 2026-05-05 01:40 | 34.08664 | -116.46112 | 27967 ft | 385 kts | 254° |
| 2026-05-05 01:40 | 34.08379 | -116.48782 | 27966 ft | 386 kts | 254° |
| 2026-05-05 01:40 | 34.08090 | -116.51440 | 27964 ft | 385 kts | 255° |
| 2026-05-05 01:41 | 34.07806 | -116.54096 | 27919 ft | 380 kts | 255° |
| 2026-05-05 01:41 | 34.07534 | -116.56669 | 27802 ft | 363 kts | 255° |
| 2026-05-05 01:41 | 34.07281 | -116.59099 | 27677 ft | 347 kts | 255° |
| 2026-05-05 01:41 | 34.07050 | -116.61456 | 27272 ft | 344 kts | 255° |
| 2026-05-05 01:42 | 34.06826 | -116.63849 | 26842 ft | 341 kts | 255° |
| 2026-05-05 01:42 | 34.06604 | -116.66197 | 26412 ft | 339 kts | 255° |
| 2026-05-05 01:42 | 34.06387 | -116.68484 | 25919 ft | 340 kts | 256° |
| 2026-05-05 01:42 | 34.06163 | -116.70900 | 25438 ft | 339 kts | 256° |
| 2026-05-05 01:43 | 34.05948 | -116.73183 | 25018 ft | 337 kts | 258° |
| 2026-05-05 01:43 | 34.05736 | -116.75481 | 24623 ft | 335 kts | 258° |
| 2026-05-05 01:43 | 34.05521 | -116.77804 | 24233 ft | 334 kts | 258° |
| 2026-05-05 01:43 | 34.05307 | -116.80113 | 23843 ft | 332 kts | 258° |
| 2026-05-05 01:44 | 34.05099 | -116.82388 | 23464 ft | 331 kts | 259° |
| 2026-05-05 01:44 | 34.04885 | -116.84632 | 23073 ft | 331 kts | 259° |
| 2026-05-05 01:44 | 34.04669 | -116.86912 | 22666 ft | 330 kts | 259° |
| 2026-05-05 01:44 | 34.04440 | -116.89143 | 22288 ft | 329 kts | 258° |
| 2026-05-05 01:45 | 34.04250 | -116.90643 | 22032 ft | 328 kts | 257° |
| 2026-05-05 01:45 | 34.03870 | -116.93626 | 21531 ft | 326 kts | 258° |
| 2026-05-05 01:45 | 34.03582 | -116.95849 | 21154 ft | 326 kts | 258° |
| 2026-05-05 01:45 | 34.03296 | -116.98059 | 20759 ft | 325 kts | 258° |
| 2026-05-05 01:46 | 34.03009 | -117.00281 | 20410 ft | 323 kts | 258° |
| 2026-05-05 01:46 | 34.02729 | -117.02455 | 20081 ft | 321 kts | 258° |
| 2026-05-05 01:46 | 34.02451 | -117.04665 | 19724 ft | 320 kts | 258° |
| 2026-05-05 01:46 | 34.02169 | -117.07034 | 19339 ft | 319 kts | 259° |
| 2026-05-05 01:47 | 34.01972 | -117.08695 | 19063 ft | 319 kts | 260° |
| 2026-05-05 01:47 | 34.01633 | -117.11602 | 18579 ft | 319 kts | 260° |
| 2026-05-05 01:47 | 34.01378 | -117.13781 | 18214 ft | 319 kts | 260° |
| 2026-05-05 01:47 | 34.01120 | -117.15955 | 17849 ft | 319 kts | 260° |
| 2026-05-05 01:48 | 34.00860 | -117.18139 | 17495 ft | 319 kts | 260° |
| 2026-05-05 01:48 | 34.00602 | -117.20325 | 17147 ft | 318 kts | 260° |
| 2026-05-05 01:48 | 34.00340 | -117.22509 | 16796 ft | 317 kts | 260° |
| 2026-05-05 01:48 | 34.00082 | -117.24667 | 16445 ft | 316 kts | 260° |
| 2026-05-05 01:49 | 33.99827 | -117.26798 | 16089 ft | 316 kts | 260° |
| 2026-05-05 01:49 | 33.99568 | -117.28960 | 15735 ft | 315 kts | 260° |
| 2026-05-05 01:49 | 33.99396 | -117.30396 | 15498 ft | 315 kts | 260° |
| 2026-05-05 01:49 | 33.99057 | -117.33266 | 15044 ft | 313 kts | 260° |
| 2026-05-05 01:50 | 33.98771 | -117.35681 | 14660 ft | 312 kts | 261° |
| 2026-05-05 01:50 | 33.98573 | -117.37384 | 14387 ft | 311 kts | 260° |
| 2026-05-05 01:50 | 33.98181 | -117.40726 | 13852 ft | 309 kts | 261° |
| 2026-05-05 01:50 | 33.97904 | -117.43072 | 13475 ft | 308 kts | 261° |
| 2026-05-05 01:51 | 33.97654 | -117.45179 | 13135 ft | 307 kts | 261° |
| 2026-05-05 01:51 | 33.97454 | -117.47257 | 12854 ft | 304 kts | 265° |
| 2026-05-05 01:51 | 33.97452 | -117.49326 | 12744 ft | 297 kts | 272° |
| 2026-05-05 01:51 | 33.97649 | -117.51341 | 12433 ft | 297 kts | 278° |
| 2026-05-05 01:52 | 33.97979 | -117.53327 | 12109 ft | 297 kts | 280° |
| 2026-05-05 01:52 | 33.98349 | -117.55351 | 11783 ft | 296 kts | 281° |
| 2026-05-05 01:52 | 33.98712 | -117.57324 | 11469 ft | 295 kts | 281° |
| 2026-05-05 01:52 | 33.99078 | -117.59336 | 11145 ft | 294 kts | 280° |
| 2026-05-05 01:53 | 33.99434 | -117.61316 | 10835 ft | 292 kts | 280° |
| 2026-05-05 01:53 | 33.99785 | -117.63284 | 10528 ft | 291 kts | 281° |
| 2026-05-05 01:53 | 34.00124 | -117.65205 | 10233 ft | 289 kts | 280° |
| 2026-05-05 01:53 | 34.00429 | -117.67157 | 10121 ft | 278 kts | 275° |
| 2026-05-05 01:54 | 34.00541 | -117.69063 | 10041 ft | 268 kts | 271° |
| 2026-05-05 01:54 | 34.00606 | -117.70884 | 9963 ft | 269 kts | 271° |
| 2026-05-05 01:54 | 34.00673 | -117.72807 | 9863 ft | 269 kts | 271° |
| 2026-05-05 01:54 | 34.00732 | -117.74676 | 9740 ft | 269 kts | 271° |
| 2026-05-05 01:55 | 34.00676 | -117.76513 | 9569 ft | 266 kts | 260° |
| 2026-05-05 01:55 | 34.00355 | -117.78294 | 9183 ft | 262 kts | 255° |
| 2026-05-05 01:55 | 33.99959 | -117.80080 | 8604 ft | 264 kts | 255° |
| 2026-05-05 01:55 | 33.99587 | -117.81795 | 8224 ft | 261 kts | 256° |
| 2026-05-05 01:56 | 33.99221 | -117.83607 | 7908 ft | 263 kts | 259° |
| 2026-05-05 01:56 | 33.98963 | -117.85385 | 7605 ft | 264 kts | 260° |
| 2026-05-05 01:56 | 33.98734 | -117.87238 | 7298 ft | 263 kts | 263° |
| 2026-05-05 01:56 | 33.98633 | -117.88438 | 7113 ft | 263 kts | 264° |
| 2026-05-05 01:57 | 33.98426 | -117.91077 | 6708 ft | 261 kts | 264° |
| 2026-05-05 01:57 | 33.98252 | -117.92986 | 6410 ft | 261 kts | 263° |
| 2026-05-05 01:57 | 33.98078 | -117.94793 | 6199 ft | 260 kts | 263° |
| 2026-05-05 01:57 | 33.97905 | -117.96587 | 6040 ft | 260 kts | 263° |
| 2026-05-05 01:58 | 33.97726 | -117.98408 | 5869 ft | 261 kts | 263° |
| 2026-05-05 01:58 | 33.97550 | -118.00201 | 5709 ft | 259 kts | 263° |
| 2026-05-05 01:58 | 33.97370 | -118.02017 | 5574 ft | 259 kts | 263° |
| 2026-05-05 01:58 | 33.97192 | -118.03814 | 5436 ft | 258 kts | 263° |
| 2026-05-05 01:59 | 33.96992 | -118.05821 | 5233 ft | 259 kts | 263° |
| 2026-05-05 01:59 | 33.96830 | -118.07626 | 4985 ft | 258 kts | 264° |
| 2026-05-05 01:59 | 33.96679 | -118.09479 | 4689 ft | 258 kts | 264° |
| 2026-05-05 01:59 | 33.96517 | -118.11305 | 4402 ft | 256 kts | 263° |
| 2026-05-05 02:00 | 33.96346 | -118.13078 | 4115 ft | 248 kts | 263° |
| 2026-05-05 02:00 | 33.96170 | -118.14809 | 3839 ft | 242 kts | 262° |
| 2026-05-05 02:00 | 33.95991 | -118.16528 | 3573 ft | 238 kts | 262° |
| 2026-05-05 02:00 | 33.95815 | -118.18204 | 3309 ft | 236 kts | 262° |
| 2026-05-05 02:01 | 33.95643 | -118.19841 | 3051 ft | 234 kts | 262° |
| 2026-05-05 02:01 | 33.95471 | -118.21479 | 2787 ft | 229 kts | 262° |
| 2026-05-05 02:01 | 33.95307 | -118.23045 | 2537 ft | 222 kts | 262° |
| 2026-05-05 02:01 | 33.95147 | -118.24588 | 2289 ft | 212 kts | 262° |
| 2026-05-05 02:02 | 33.94998 | -118.26032 | 2094 ft | 203 kts | 262° |
| 2026-05-05 02:02 | 33.94855 | -118.27413 | 1931 ft | 189 kts | 262° |
| 2026-05-05 02:02 | 33.94718 | -118.28739 | 1688 ft | 179 kts | 262° |
| 2026-05-05 02:02 | 33.94586 | -118.30018 | 1479 ft | 167 kts | 262° |
| 2026-05-05 02:03 | 33.94449 | -118.31350 | 1232 ft | 153 kts | 262° |
| 2026-05-05 02:03 | 33.94342 | -118.32388 | 1041 ft | 140 kts | 262° |
| 2026-05-05 02:03 | 33.94244 | -118.33331 | 883 ft | 133 kts | 262° |
| 2026-05-05 02:03 | 33.94149 | -118.34251 | 760 ft | 133 kts | 262° |
| 2026-05-05 02:04 | 33.94054 | -118.35170 | 628 ft | 133 kts | 262° |
| 2026-05-05 02:04 | 33.93951 | -118.36173 | 475 ft | 133 kts | 262° |
| 2026-05-05 02:04 | 33.93858 | -118.37083 | 330 ft | 133 kts | 262° |
| 2026-05-05 02:04 | 33.93769 | -118.37986 | 187 ft | 132 kts | 263° |
| 2026-05-05 02:05 | 33.93680 | -118.38871 | 105 ft | 124 kts | 262° |
| 2026-05-05 02:05 | 33.93605 | -118.39587 | 111 ft | 72 kts | 264° |
| 2026-05-05 02:05 | 33.93646 | -118.39929 | 116 ft | 36 kts | 290° |
| 2026-05-05 02:05 | 33.93659 | -118.40114 | 119 ft | 17 kts | 263° |
| 2026-05-05 02:06 | 33.93647 | -118.40230 | 120 ft | 16 kts | 263° |
| 2026-05-05 02:06 | 33.93644 | -118.40291 | 120 ft | 3 kts | 276° |
| 2026-05-05 02:06 | 33.93645 | -118.40301 | 120 ft | 0 kts | 282° |
| 2026-05-05 02:07 | 33.93646 | -118.40303 | 120 ft | 1 kts | 282° |
| 2026-05-05 02:07 | 33.93676 | -118.40387 | 121 ft | 15 kts | 310° |
| 2026-05-05 02:07 | 33.93752 | -118.40428 | 122 ft | 15 kts | 351° |
| 2026-05-05 02:07 | 33.93823 | -118.40472 | 123 ft | 13 kts | 289° |
| 2026-05-05 02:08 | 33.93820 | -118.40559 | 125 ft | 12 kts | 262° |
| 2026-05-05 02:08 | 33.93814 | -118.40639 | 126 ft | 10 kts | 266° |
| 2026-05-05 02:08 | 33.93808 | -118.40713 | 127 ft | 10 kts | 262° |
| 2026-05-05 02:08 | 33.93799 | -118.40789 | 127 ft | 11 kts | 262° |
| 2026-05-05 02:09 | 33.93791 | -118.40868 | 127 ft | 11 kts | 264° |
| 2026-05-05 02:09 | 33.93782 | -118.40955 | 127 ft | 12 kts | 263° |
| 2026-05-05 02:09 | 33.93772 | -118.41052 | 127 ft | 12 kts | 263° |
| 2026-05-05 02:09 | 33.93777 | -118.41125 | 127 ft | 10 kts | 308° |
| 2026-05-05 02:10 | 33.93831 | -118.41157 | 127 ft | 12 kts | 350° |
| 2026-05-05 02:10 | 33.93912 | -118.41172 | 125 ft | 14 kts | 352° |
| 2026-05-05 02:10 | 33.94019 | -118.41187 | 123 ft | 16 kts | 353° |
| 2026-05-05 02:10 | 33.94129 | -118.41203 | 123 ft | 17 kts | 353° |
| 2026-05-05 02:11 | 33.94236 | -118.41219 | 122 ft | 17 kts | 354° |
| 2026-05-05 02:11 | 33.94310 | -118.41229 | 121 ft | 18 kts | 353° |
| 2026-05-05 02:11 | 33.94455 | -118.41251 | 120 ft | 18 kts | 354° |
| 2026-05-05 02:11 | 33.94561 | -118.41267 | 120 ft | 18 kts | 352° |
| 2026-05-05 02:12 | 33.94675 | -118.41274 | 122 ft | 14 kts | 22° |
| 2026-05-05 02:12 | 33.94734 | -118.41075 | 124 ft | 14 kts | 84° |
| 2026-05-05 02:12 | 33.94743 | -118.40984 | 123 ft | 14 kts | 84° |
| 2026-05-05 02:13 | 33.94709 | -118.40916 | 122 ft | 12 kts | 172° |
| 2026-05-05 02:13 | 33.94637 | -118.40906 | 122 ft | 7 kts | 166° |
| 2026-05-05 02:13 | 33.94629 | -118.40901 | 122 ft | 0 kts | 134° |
| 2026-05-05 02:13 | 33.94626 | -118.40890 | 121 ft | 3 kts | 108° |
| 2026-05-05 02:14 | 33.94620 | -118.40865 | 121 ft | 5 kts | 105° |
| 2026-05-05 02:14 | 33.94616 | -118.40843 | 120 ft | 4 kts | 104° |
| 2026-05-05 02:14 | 33.94613 | -118.40832 | 120 ft | 2 kts | 104° |
| 2026-05-05 02:14 | 33.94610 | -118.40818 | 120 ft | 1 kts | 104° |
| 2026-05-05 02:15 | 33.94609 | -118.40811 | 120 ft | 1 kts | 104° |
| 2026-05-05 02:15 | 33.94609 | -118.40810 | 120 ft | 0 kts | 104° |
| 2026-05-05 02:15 | 33.94608 | -118.40809 | 120 ft | 0 kts | 104° |